createdAt,value
2016-10-14T00:00:02.195Z,947.59
2016-10-14T00:01:02.214Z,947.59
2016-10-14T00:02:02.231Z,947.58
2016-10-14T00:03:02.249Z,947.57
2016-10-14T00:04:02.269Z,947.58
2016-10-14T00:05:02.288Z,947.59
2016-10-14T00:06:02.305Z,947.57
2016-10-14T00:07:02.324Z,947.58
2016-10-14T00:08:02.343Z,947.6
2016-10-14T00:09:02.361Z,947.63
2016-10-14T00:10:02.379Z,947.68
2016-10-14T00:11:02.397Z,947.68
2016-10-14T00:12:02.418Z,947.73
2016-10-14T00:13:02.435Z,947.68
2016-10-14T00:14:02.454Z,947.7
2016-10-14T00:15:02.472Z,947.69
2016-10-14T00:16:02.491Z,947.71
2016-10-14T00:17:02.508Z,947.74
2016-10-14T00:18:02.528Z,947.7
2016-10-14T00:19:02.546Z,947.7
2016-10-14T00:20:02.565Z,947.69
2016-10-14T00:21:02.583Z,947.69
2016-10-14T00:22:02.602Z,947.71
2016-10-14T00:23:02.621Z,947.72
2016-10-14T00:24:02.639Z,947.76
2016-10-14T00:25:02.658Z,947.7
2016-10-14T00:26:02.678Z,947.69
2016-10-14T00:27:02.694Z,947.63
2016-10-14T00:28:02.713Z,947.63
2016-10-14T00:29:02.731Z,947.56
2016-10-14T00:30:02.752Z,947.58
2016-10-14T00:31:02.768Z,947.54
2016-10-14T00:32:02.787Z,947.57
2016-10-14T00:33:02.811Z,947.58
2016-10-14T00:34:02.825Z,947.58
2016-10-14T00:35:02.843Z,947.55
2016-10-14T00:36:02.861Z,947.57
2016-10-14T00:37:02.881Z,947.59
2016-10-14T00:38:02.899Z,947.57
2016-10-14T00:39:02.917Z,947.55
2016-10-14T00:40:02.937Z,947.65
2016-10-14T00:41:02.956Z,947.68
2016-10-14T00:42:02.972Z,947.66
2016-10-14T00:43:02.991Z,947.67
2016-10-14T00:44:03.009Z,947.66
2016-10-14T00:45:03.029Z,947.62
2016-10-14T00:46:03.047Z,947.61
2016-10-14T00:47:03.066Z,947.61
2016-10-14T00:48:03.085Z,947.57
2016-10-14T00:49:03.103Z,947.6
2016-10-14T00:50:03.121Z,947.61
2016-10-14T00:51:03.140Z,947.56
2016-10-14T00:52:03.161Z,947.55
2016-10-14T00:53:03.177Z,947.52
2016-10-14T00:54:03.196Z,947.49
2016-10-14T00:55:03.214Z,947.54
2016-10-14T00:56:03.233Z,947.6
2016-10-14T00:57:03.251Z,947.63
2016-10-14T00:58:03.270Z,947.62
2016-10-14T00:59:03.289Z,947.6
2016-10-14T01:00:03.307Z,947.64
2016-10-14T01:01:03.326Z,947.66
2016-10-14T01:02:03.346Z,947.77
2016-10-14T01:03:03.366Z,947.64
2016-10-14T01:04:03.380Z,947.63
2016-10-14T01:05:03.400Z,947.6
2016-10-14T01:06:03.419Z,947.56
2016-10-14T01:07:03.438Z,947.55
2016-10-14T01:08:03.454Z,947.58
2016-10-14T01:09:03.475Z,947.54
2016-10-14T01:10:03.493Z,947.45
2016-10-14T01:11:03.512Z,947.44
2016-10-14T01:12:03.531Z,947.39
2016-10-14T01:13:03.549Z,947.41
2016-10-14T01:14:03.569Z,947.35
2016-10-14T01:15:03.585Z,947.4
2016-10-14T01:16:03.604Z,947.39
2016-10-14T01:17:03.624Z,947.41
2016-10-14T01:18:03.646Z,947.43
2016-10-14T01:19:03.661Z,947.48
2016-10-14T01:20:03.680Z,947.44
2016-10-14T01:21:03.698Z,947.47
2016-10-14T01:22:03.717Z,947.5
2016-10-14T01:23:03.736Z,947.5
2016-10-14T01:24:03.754Z,947.54
2016-10-14T01:25:03.773Z,947.43
2016-10-14T01:26:03.792Z,947.48
2016-10-14T01:27:03.810Z,947.49
2016-10-14T01:28:03.828Z,947.41
2016-10-14T01:29:03.847Z,947.45
2016-10-14T01:30:03.865Z,947.36
2016-10-14T01:31:03.884Z,947.37
2016-10-14T01:32:03.905Z,947.39
2016-10-14T01:33:03.921Z,947.36
2016-10-14T01:34:03.939Z,947.37
2016-10-14T01:35:03.958Z,947.32
2016-10-14T01:36:03.977Z,947.29
2016-10-14T01:37:03.995Z,947.26
2016-10-14T01:38:04.014Z,947.21
2016-10-14T01:39:04.031Z,947.26
2016-10-14T01:40:04.052Z,947.3
2016-10-14T01:41:04.069Z,947.26
2016-10-14T01:42:04.087Z,947.25
2016-10-14T01:43:04.106Z,947.26
2016-10-14T01:44:04.123Z,947.28
2016-10-14T01:45:04.143Z,947.35
2016-10-14T01:46:04.162Z,947.36
2016-10-14T01:47:04.181Z,947.28
2016-10-14T01:48:04.203Z,947.29
2016-10-14T01:49:04.217Z,947.28
2016-10-14T01:50:04.236Z,947.3
2016-10-14T01:51:04.253Z,947.3
2016-10-14T01:52:04.275Z,947.3
2016-10-14T01:53:04.291Z,947.34
2016-10-14T01:54:04.309Z,947.34
2016-10-14T01:55:04.327Z,947.33
2016-10-14T01:56:04.346Z,947.25
2016-10-14T01:57:04.365Z,947.29
2016-10-14T01:58:04.383Z,947.29
2016-10-14T01:59:04.401Z,947.32
2016-10-14T02:00:04.418Z,947.33
2016-10-14T02:01:04.439Z,947.32
2016-10-14T02:02:04.477Z,947.27
2016-10-14T02:03:04.610Z,947.31
2016-10-14T02:04:04.493Z,947.23
2016-10-14T02:05:04.512Z,947.21
2016-10-14T02:06:04.529Z,947.24
2016-10-14T02:07:04.548Z,947.27
2016-10-14T02:08:04.566Z,947.18
2016-10-14T02:09:04.585Z,947.25
2016-10-14T02:10:04.603Z,947.21
2016-10-14T02:11:04.621Z,947.2
2016-10-14T02:12:04.640Z,947.2
2016-10-14T02:13:04.659Z,947.18
2016-10-14T02:14:04.677Z,947.17
2016-10-14T02:15:04.694Z,947.2
2016-10-14T02:16:04.713Z,947.23
2016-10-14T02:17:04.731Z,947.23
2016-10-14T02:18:04.750Z,947.23
2016-10-14T02:19:04.768Z,947.26
2016-10-14T02:20:04.788Z,947.15
2016-10-14T02:21:04.805Z,947.13
2016-10-14T02:22:04.823Z,947.13
2016-10-14T02:23:04.842Z,947.11
2016-10-14T02:24:04.861Z,947.09
2016-10-14T02:25:04.883Z,947.14
2016-10-14T02:26:04.898Z,947.1
2016-10-14T02:27:04.916Z,947.11
2016-10-14T02:28:04.934Z,947.12
2016-10-14T02:29:04.952Z,947.08
2016-10-14T02:30:04.970Z,947.08
2016-10-14T02:31:04.990Z,947.08
2016-10-14T02:32:05.008Z,947.07
2016-10-14T02:33:05.028Z,947.04
2016-10-14T02:34:05.044Z,946.99
2016-10-14T02:35:05.064Z,946.98
2016-10-14T02:36:05.081Z,946.91
2016-10-14T02:37:05.100Z,946.94
2016-10-14T02:38:05.119Z,946.84
2016-10-14T02:39:05.136Z,946.89
2016-10-14T02:40:05.155Z,946.87
2016-10-14T02:41:05.174Z,946.88
2016-10-14T02:42:05.193Z,946.8
2016-10-14T02:43:05.209Z,946.86
2016-10-14T02:44:05.229Z,946.86
2016-10-14T02:45:05.247Z,946.9
2016-10-14T02:46:05.266Z,946.95
2016-10-14T02:47:05.284Z,946.95
2016-10-14T02:48:05.309Z,946.96
2016-10-14T02:49:05.321Z,946.98
2016-10-14T02:50:05.339Z,946.99
2016-10-14T02:51:05.358Z,947.03
2016-10-14T02:52:05.376Z,947.08
2016-10-14T02:53:05.398Z,947.05
2016-10-14T02:54:05.412Z,947.07
2016-10-14T02:55:05.432Z,947.07
2016-10-14T02:56:05.451Z,947.08
2016-10-14T02:57:05.467Z,947.07
2016-10-14T02:58:05.485Z,947.07
2016-10-14T02:59:05.504Z,947.09
2016-10-14T03:00:05.523Z,947.08
2016-10-14T03:01:05.540Z,947.03
2016-10-14T03:02:05.558Z,947.06
2016-10-14T03:03:05.615Z,947.06
2016-10-14T03:04:05.605Z,947
2016-10-14T03:05:05.612Z,947.02
2016-10-14T03:06:05.631Z,947.01
2016-10-14T03:07:05.650Z,947.03
2016-10-14T03:08:05.667Z,946.97
2016-10-14T03:09:05.686Z,946.97
2016-10-14T03:10:05.711Z,946.87
2016-10-14T03:11:05.722Z,946.85
2016-10-14T03:12:05.741Z,946.88
2016-10-14T03:13:05.758Z,946.91
2016-10-14T03:14:05.776Z,946.89
2016-10-14T03:15:05.795Z,946.85
2016-10-14T03:16:05.812Z,946.87
2016-10-14T03:17:05.830Z,946.83
2016-10-14T03:18:05.867Z,946.8
2016-10-14T03:19:05.866Z,946.76
2016-10-14T03:20:05.885Z,946.82
2016-10-14T03:21:05.903Z,946.81
2016-10-14T03:22:05.921Z,946.8
2016-10-14T03:23:05.939Z,946.78
2016-10-14T03:24:05.957Z,946.79
2016-10-14T03:25:05.992Z,946.71
2016-10-14T03:26:05.993Z,946.71
2016-10-14T03:27:06.011Z,946.71
2016-10-14T03:28:06.030Z,946.72
2016-10-14T03:29:06.049Z,946.7
2016-10-14T03:30:06.066Z,946.63
2016-10-14T03:31:06.084Z,946.61
2016-10-14T03:32:06.102Z,946.58
2016-10-14T03:33:06.121Z,946.61
2016-10-14T03:34:06.138Z,946.64
2016-10-14T03:35:06.156Z,946.61
2016-10-14T03:36:06.175Z,946.62
2016-10-14T03:37:06.194Z,946.57
2016-10-14T03:38:06.210Z,946.52
2016-10-14T03:39:06.229Z,946.48
2016-10-14T03:40:06.247Z,946.41
2016-10-14T03:41:06.264Z,946.42
2016-10-14T03:42:06.283Z,946.35
2016-10-14T03:43:06.301Z,946.32
2016-10-14T03:44:06.320Z,946.34
2016-10-14T03:45:06.337Z,946.39
2016-10-14T03:46:06.356Z,946.37
2016-10-14T03:47:06.374Z,946.36
2016-10-14T03:48:06.393Z,946.4
2016-10-14T03:49:06.409Z,946.48
2016-10-14T03:50:06.428Z,946.47
2016-10-14T03:51:06.446Z,946.47
2016-10-14T03:52:06.464Z,946.43
2016-10-14T03:53:06.482Z,946.34
2016-10-14T03:54:06.501Z,946.3
2016-10-14T03:55:06.518Z,946.28
2016-10-14T03:56:06.536Z,946.21
2016-10-14T03:57:06.553Z,946.25
2016-10-14T03:58:06.573Z,946.26
2016-10-14T03:59:06.591Z,946.25
2016-10-14T04:00:06.608Z,946.32
2016-10-14T04:01:06.627Z,946.3
2016-10-14T04:02:06.645Z,946.3
2016-10-14T04:03:06.662Z,946.29
2016-10-14T04:04:06.681Z,946.27
2016-10-14T04:05:06.699Z,946.23
2016-10-14T04:06:06.717Z,946.25
2016-10-14T04:07:06.735Z,946.29
2016-10-14T04:08:06.752Z,946.3
2016-10-14T04:09:06.771Z,946.26
2016-10-14T04:10:06.790Z,946.27
2016-10-14T04:11:06.806Z,946.32
2016-10-14T04:12:06.826Z,946.28
2016-10-14T04:13:06.843Z,946.27
2016-10-14T04:14:06.860Z,946.25
2016-10-14T04:15:06.879Z,946.24
2016-10-14T04:16:06.897Z,946.28
2016-10-14T04:17:06.916Z,946.27
2016-10-14T04:18:06.932Z,946.21
2016-10-14T04:19:06.951Z,946.2
2016-10-14T04:20:06.969Z,946.1
2016-10-14T04:21:06.987Z,946.11
2016-10-14T04:22:07.005Z,946.01
2016-10-14T04:23:07.024Z,945.92
2016-10-14T04:24:07.041Z,945.94
2016-10-14T04:25:07.060Z,945.9
2016-10-14T04:26:07.077Z,945.92
2016-10-14T04:27:07.095Z,945.93
2016-10-14T04:28:07.114Z,945.93
2016-10-14T04:29:07.131Z,945.94
2016-10-14T04:30:07.149Z,946
2016-10-14T04:31:07.167Z,946.06
2016-10-14T04:32:07.191Z,945.98
2016-10-14T04:33:07.203Z,946
2016-10-14T04:34:07.221Z,946.02
2016-10-14T04:35:07.239Z,946.05
2016-10-14T04:36:07.257Z,946.07
2016-10-14T04:37:07.275Z,946.11
2016-10-14T04:38:07.292Z,946.09
2016-10-14T04:39:07.311Z,946.1
2016-10-14T04:40:07.333Z,946.15
2016-10-14T04:41:07.347Z,946.15
2016-10-14T04:42:07.364Z,946.15
2016-10-14T04:43:07.382Z,946.11
2016-10-14T04:44:07.402Z,946.17
2016-10-14T04:45:07.419Z,946.15
2016-10-14T04:46:07.436Z,946.1
2016-10-14T04:47:07.459Z,946.09
2016-10-14T04:48:07.472Z,946.11
2016-10-14T04:49:07.491Z,946.09
2016-10-14T04:50:07.509Z,946.08
2016-10-14T04:51:07.526Z,946.07
2016-10-14T04:52:07.547Z,946.07
2016-10-14T04:53:07.562Z,946.02
2016-10-14T04:54:07.579Z,945.95
2016-10-14T04:55:07.616Z,945.89
2016-10-14T04:56:07.616Z,945.92
2016-10-14T04:57:07.638Z,945.9
2016-10-14T04:58:07.655Z,945.89
2016-10-14T04:59:07.673Z,945.83
2016-10-14T05:00:07.685Z,945.77
2016-10-14T05:01:07.705Z,945.78
2016-10-14T05:02:07.739Z,945.73
2016-10-14T05:03:07.742Z,945.76
2016-10-14T05:04:07.759Z,945.8
2016-10-14T05:05:07.775Z,945.73
2016-10-14T05:06:07.793Z,945.73
2016-10-14T05:07:07.815Z,945.69
2016-10-14T05:08:07.832Z,945.69
2016-10-14T05:09:07.849Z,945.68
2016-10-14T05:10:07.867Z,945.62
2016-10-14T05:11:07.883Z,945.62
2016-10-14T05:12:07.903Z,945.66
2016-10-14T05:13:07.918Z,945.63
2016-10-14T05:14:07.936Z,945.7
2016-10-14T05:15:07.966Z,945.7
2016-10-14T05:16:07.972Z,945.77
2016-10-14T05:17:07.990Z,945.86
2016-10-14T05:18:08.011Z,945.86
2016-10-14T05:19:08.028Z,946
2016-10-14T05:20:08.044Z,945.98
2016-10-14T05:21:08.062Z,946
2016-10-14T05:22:08.081Z,946.02
2016-10-14T05:23:08.098Z,946.04
2016-10-14T05:24:08.121Z,946.06
2016-10-14T05:25:08.134Z,946.03
2016-10-14T05:26:08.151Z,946.04
2016-10-14T05:27:08.169Z,945.98
2016-10-14T05:28:08.188Z,945.91
2016-10-14T05:29:08.205Z,945.91
2016-10-14T05:30:08.223Z,945.93
2016-10-14T05:31:08.241Z,945.89
2016-10-14T05:32:08.263Z,945.86
2016-10-14T05:33:08.277Z,945.81
2016-10-14T05:34:08.294Z,945.82
2016-10-14T05:35:08.311Z,945.81
2016-10-14T05:36:08.329Z,945.78
2016-10-14T05:37:08.348Z,945.86
2016-10-14T05:38:08.365Z,945.87
2016-10-14T05:39:08.381Z,945.89
2016-10-14T05:40:08.401Z,945.89
2016-10-14T05:41:08.419Z,945.86
2016-10-14T05:42:08.436Z,945.78
2016-10-14T05:43:08.454Z,945.81
2016-10-14T05:44:08.473Z,945.78
2016-10-14T05:45:08.490Z,945.75
2016-10-14T05:46:08.509Z,945.75
2016-10-14T05:47:08.526Z,945.7
2016-10-14T05:48:08.543Z,945.67
2016-10-14T05:49:08.561Z,945.67
2016-10-14T05:50:08.580Z,945.71
2016-10-14T05:51:08.598Z,945.68
2016-10-14T05:52:08.617Z,945.65
2016-10-14T05:53:08.636Z,945.66
2016-10-14T05:54:08.651Z,945.64
2016-10-14T05:55:08.671Z,945.66
2016-10-14T05:56:08.689Z,945.69
2016-10-14T05:57:08.708Z,945.68
2016-10-14T05:58:08.724Z,945.78
2016-10-14T05:59:08.741Z,945.81
2016-10-14T06:00:08.760Z,945.92
2016-10-14T06:01:08.779Z,946.01
2016-10-14T06:02:08.806Z,945.99
2016-10-14T06:03:08.813Z,945.97
2016-10-14T06:04:08.830Z,945.93
2016-10-14T06:05:08.849Z,945.96
2016-10-14T06:06:08.867Z,946.02
2016-10-14T06:07:08.883Z,946
2016-10-14T06:08:08.902Z,945.98
2016-10-14T06:09:08.932Z,945.94
2016-10-14T06:10:08.937Z,945.98
2016-10-14T06:11:08.954Z,945.93
2016-10-14T06:12:08.972Z,945.92
2016-10-14T06:13:08.991Z,946
2016-10-14T06:14:09.009Z,946.02
2016-10-14T06:15:09.025Z,946.03
2016-10-14T06:16:09.044Z,946.04
2016-10-14T06:17:09.063Z,945.97
2016-10-14T06:18:09.079Z,945.91
2016-10-14T06:19:09.097Z,945.87
2016-10-14T06:20:09.115Z,945.91
2016-10-14T06:21:09.133Z,945.9
2016-10-14T06:22:09.150Z,945.9
2016-10-14T06:23:09.167Z,945.91
2016-10-14T06:24:09.185Z,945.88
2016-10-14T06:25:09.202Z,945.88
2016-10-14T06:26:09.221Z,945.91
2016-10-14T06:27:09.239Z,945.9
2016-10-14T06:28:09.255Z,945.92
2016-10-14T06:29:09.272Z,945.95
2016-10-14T06:30:09.292Z,945.91
2016-10-14T06:31:09.309Z,945.89
2016-10-14T06:32:09.328Z,945.89
2016-10-14T06:33:09.344Z,945.84
2016-10-14T06:34:09.361Z,945.84
2016-10-14T06:35:09.379Z,945.92
2016-10-14T06:36:09.398Z,945.92
2016-10-14T06:37:09.414Z,945.88
2016-10-14T06:38:09.432Z,945.83
2016-10-14T06:39:09.450Z,945.81
2016-10-14T06:40:09.467Z,945.93
2016-10-14T06:41:09.485Z,945.9
2016-10-14T06:42:09.503Z,945.97
2016-10-14T06:43:09.522Z,946.03
2016-10-14T06:44:09.538Z,945.98
2016-10-14T06:45:09.556Z,945.96
2016-10-14T06:46:09.576Z,945.98
2016-10-14T06:47:09.591Z,946
2016-10-14T06:48:09.608Z,946.01
2016-10-14T06:49:09.626Z,945.97
2016-10-14T06:50:09.643Z,945.95
2016-10-14T06:51:09.662Z,945.95
2016-10-14T06:52:09.678Z,945.95
2016-10-14T06:53:09.696Z,945.94
2016-10-14T06:54:09.719Z,945.89
2016-10-14T06:55:09.731Z,945.91
2016-10-14T06:56:09.749Z,945.93
2016-10-14T06:57:09.767Z,945.88
2016-10-14T06:58:09.786Z,945.88
2016-10-14T06:59:09.803Z,945.86
2016-10-14T07:00:09.820Z,945.91
2016-10-14T07:01:09.843Z,945.88
2016-10-14T07:02:09.855Z,945.9
2016-10-14T07:03:09.873Z,945.83
2016-10-14T07:04:09.890Z,945.78
2016-10-14T07:05:09.909Z,945.75
2016-10-14T07:06:09.926Z,945.76
2016-10-14T07:07:09.944Z,945.75
2016-10-14T07:08:09.962Z,945.76
2016-10-14T07:09:10.003Z,945.71
2016-10-14T07:10:09.996Z,945.75
2016-10-14T07:11:10.014Z,945.72
2016-10-14T07:12:10.032Z,945.68
2016-10-14T07:13:10.050Z,945.71
2016-10-14T07:14:10.067Z,945.71
2016-10-14T07:15:10.085Z,945.72
2016-10-14T07:16:10.124Z,945.71
2016-10-14T07:17:10.119Z,945.75
2016-10-14T07:18:10.137Z,945.78
2016-10-14T07:19:10.155Z,945.8
2016-10-14T07:20:10.174Z,945.81
2016-10-14T07:21:10.191Z,945.72
2016-10-14T07:22:10.210Z,945.74
2016-10-14T07:23:10.226Z,945.73
2016-10-14T07:24:10.245Z,945.8
2016-10-14T07:25:10.261Z,945.79
2016-10-14T07:26:10.279Z,945.82
2016-10-14T07:27:10.298Z,945.84
2016-10-14T07:28:10.314Z,945.88
2016-10-14T07:29:10.331Z,945.9
2016-10-14T07:30:10.350Z,945.89
2016-10-14T07:31:10.374Z,945.91
2016-10-14T07:32:10.386Z,945.98
2016-10-14T07:33:10.404Z,945.95
2016-10-14T07:34:10.422Z,946.01
2016-10-14T07:35:10.440Z,946.01
2016-10-14T07:36:10.458Z,946.05
2016-10-14T07:37:10.476Z,946.03
2016-10-14T07:38:10.494Z,946.1
2016-10-14T07:39:10.512Z,946.1
2016-10-14T07:40:10.530Z,946.13
2016-10-14T07:41:10.548Z,946.16
2016-10-14T07:42:10.564Z,946.16
2016-10-14T07:43:10.583Z,946.19
2016-10-14T07:44:10.602Z,946.16
2016-10-14T07:45:10.618Z,946.16
2016-10-14T07:46:10.642Z,946.18
2016-10-14T07:47:10.857Z,946.14
2016-10-14T07:48:10.672Z,946.09
2016-10-14T07:49:10.692Z,946.08
2016-10-14T07:50:10.707Z,946.08
2016-10-14T07:51:10.726Z,946
2016-10-14T07:52:10.746Z,946.06
2016-10-14T07:53:10.763Z,946.09
2016-10-14T07:54:10.781Z,946.08
2016-10-14T07:55:10.798Z,946.06
2016-10-14T07:56:10.817Z,945.95
2016-10-14T07:57:10.834Z,945.99
2016-10-14T07:58:10.853Z,945.89
2016-10-14T07:59:10.870Z,945.9
2016-10-14T08:00:10.891Z,945.92
2016-10-14T08:01:10.910Z,946
2016-10-14T08:02:10.925Z,946.03
2016-10-14T08:03:10.943Z,946.02
2016-10-14T08:04:10.962Z,946
2016-10-14T08:05:10.980Z,946.01
2016-10-14T08:06:11.000Z,946.02
2016-10-14T08:07:11.018Z,945.91
2016-10-14T08:08:11.034Z,945.82
2016-10-14T08:09:11.052Z,945.82
2016-10-14T08:10:11.071Z,945.77
2016-10-14T08:11:11.091Z,945.73
2016-10-14T08:12:11.107Z,945.75
2016-10-14T08:13:11.128Z,945.71
2016-10-14T08:14:11.147Z,945.74
2016-10-14T08:15:11.164Z,945.76
2016-10-14T08:16:11.188Z,945.72
2016-10-14T08:17:11.203Z,945.7
2016-10-14T08:18:11.222Z,945.8
2016-10-14T08:19:11.240Z,945.79
2016-10-14T08:20:11.259Z,945.85
2016-10-14T08:21:11.278Z,945.8
2016-10-14T08:22:11.297Z,945.78
2016-10-14T08:23:11.316Z,945.77
2016-10-14T08:24:11.334Z,945.74
2016-10-14T08:25:11.355Z,945.74
2016-10-14T08:26:11.372Z,945.8
2016-10-14T08:27:11.395Z,945.76
2016-10-14T08:28:11.411Z,945.74
2016-10-14T08:29:11.431Z,945.73
2016-10-14T08:30:11.451Z,945.72
2016-10-14T08:31:11.471Z,945.65
2016-10-14T08:32:11.489Z,945.63
2016-10-14T08:33:11.507Z,945.64
2016-10-14T08:34:11.526Z,945.62
2016-10-14T08:35:11.546Z,945.61
2016-10-14T08:36:11.565Z,945.69
2016-10-14T08:37:11.590Z,945.72
2016-10-14T08:38:11.608Z,945.77
2016-10-14T08:39:11.624Z,945.77
2016-10-14T08:40:11.644Z,945.68
2016-10-14T08:41:11.662Z,945.65
2016-10-14T08:42:11.682Z,945.66
2016-10-14T08:43:11.702Z,945.64
2016-10-14T08:44:11.723Z,945.69
2016-10-14T08:45:11.742Z,945.7
2016-10-14T08:46:11.769Z,945.7
2016-10-14T08:47:11.783Z,945.7
2016-10-14T08:48:11.800Z,945.73
2016-10-14T08:49:11.820Z,945.74
2016-10-14T08:50:11.840Z,945.69
2016-10-14T08:51:11.860Z,945.7
2016-10-14T08:52:11.880Z,945.72
2016-10-14T08:53:11.900Z,945.75
2016-10-14T08:54:11.921Z,945.76
2016-10-14T08:55:11.940Z,945.82
2016-10-14T08:56:11.959Z,945.89
2016-10-14T08:57:11.979Z,945.95
2016-10-14T08:58:12.002Z,946.01
2016-10-14T08:59:12.018Z,946.04
2016-10-14T09:00:12.039Z,945.97
2016-10-14T09:01:12.060Z,945.93
2016-10-14T09:02:12.080Z,945.88
2016-10-14T09:03:12.100Z,945.93
2016-10-14T09:04:12.120Z,945.93
2016-10-14T09:05:12.141Z,945.93
2016-10-14T09:06:12.160Z,945.89
2016-10-14T09:07:12.183Z,945.92
2016-10-14T09:08:12.204Z,945.88
2016-10-14T09:09:12.221Z,945.9
2016-10-14T09:10:12.243Z,945.9
2016-10-14T09:11:12.261Z,945.89
2016-10-14T09:12:12.284Z,945.87
2016-10-14T09:13:12.302Z,945.79
2016-10-14T09:14:12.322Z,945.87
2016-10-14T09:15:12.344Z,945.89
2016-10-14T09:16:12.375Z,945.85
2016-10-14T09:17:12.383Z,945.91
2016-10-14T09:18:12.402Z,945.78
2016-10-14T09:19:12.423Z,945.74
2016-10-14T09:20:12.442Z,945.69
2016-10-14T09:21:12.463Z,945.66
2016-10-14T09:22:12.482Z,945.64
2016-10-14T09:23:12.503Z,945.67
2016-10-14T09:24:12.529Z,945.65
2016-10-14T09:25:12.543Z,945.64
2016-10-14T09:26:12.563Z,945.59
2016-10-14T09:27:12.584Z,945.63
2016-10-14T09:28:12.627Z,945.67
2016-10-14T09:29:12.623Z,945.69
2016-10-14T09:30:12.643Z,945.68
2016-10-14T09:31:12.781Z,945.66
2016-10-14T09:32:12.683Z,945.63
2016-10-14T09:33:12.805Z,945.54
2016-10-14T09:34:12.723Z,945.58
2016-10-14T09:35:12.747Z,945.59
2016-10-14T09:36:12.765Z,945.61
2016-10-14T09:37:12.784Z,945.61
2016-10-14T09:38:12.806Z,945.66
2016-10-14T09:39:12.824Z,945.65
2016-10-14T09:40:12.846Z,945.62
2016-10-14T09:41:12.865Z,945.55
2016-10-14T09:42:12.886Z,945.47
2016-10-14T09:43:12.906Z,945.53
2016-10-14T09:44:12.926Z,945.46
2016-10-14T09:45:12.947Z,945.42
2016-10-14T09:46:12.967Z,945.45
2016-10-14T09:47:12.988Z,945.42
2016-10-14T09:48:13.008Z,945.42
2016-10-14T09:49:13.028Z,945.4
2016-10-14T09:50:13.055Z,945.38
2016-10-14T09:51:13.069Z,945.4
2016-10-14T09:52:13.091Z,945.38
2016-10-14T09:53:13.118Z,945.43
2016-10-14T09:54:13.150Z,945.48
2016-10-14T09:55:13.151Z,945.45
2016-10-14T09:56:13.179Z,945.47
2016-10-14T09:57:13.193Z,945.47
2016-10-14T09:58:13.219Z,945.45
2016-10-14T09:59:13.232Z,945.4
2016-10-14T10:00:13.255Z,945.43
2016-10-14T10:01:13.272Z,945.42
2016-10-14T10:02:13.304Z,945.39
2016-10-14T10:03:13.314Z,945.39
2016-10-14T10:04:13.334Z,945.34
2016-10-14T10:05:13.356Z,945.31
2016-10-14T10:06:13.385Z,945.22
2016-10-14T10:07:13.396Z,945.23
2016-10-14T10:08:13.418Z,945.29
2016-10-14T10:09:13.439Z,945.32
2016-10-14T10:10:13.468Z,945.3
2016-10-14T10:11:13.480Z,945.32
2016-10-14T10:12:13.499Z,945.3
2016-10-14T10:13:13.520Z,945.37
2016-10-14T10:14:13.550Z,945.36
2016-10-14T10:15:13.561Z,945.41
2016-10-14T10:16:13.584Z,945.41
2016-10-14T10:17:13.605Z,945.36
2016-10-14T10:18:13.624Z,945.39
2016-10-14T10:19:13.645Z,945.41
2016-10-14T10:20:13.666Z,945.37
2016-10-14T10:21:13.688Z,945.32
2016-10-14T10:22:13.709Z,945.31
2016-10-14T10:23:13.728Z,945.29
2016-10-14T10:24:13.750Z,945.21
2016-10-14T10:25:13.771Z,945.15
2016-10-14T10:26:13.792Z,945.11
2016-10-14T10:27:13.812Z,945.12
2016-10-14T10:28:13.843Z,945.08
2016-10-14T10:29:13.855Z,945.13
2016-10-14T10:30:13.877Z,945.13
2016-10-14T10:31:13.897Z,945.15
2016-10-14T10:32:13.923Z,945.14
2016-10-14T10:33:13.940Z,945.14
2016-10-14T10:34:13.961Z,945.15
2016-10-14T10:35:13.982Z,945.18
2016-10-14T10:36:14.004Z,945.19
2016-10-14T10:37:14.026Z,945.2
2016-10-14T10:38:14.046Z,945.21
2016-10-14T10:39:14.068Z,945.18
2016-10-14T10:40:14.091Z,945.18
2016-10-14T10:41:14.112Z,945.21
2016-10-14T10:42:14.134Z,945.15
2016-10-14T10:43:14.156Z,945.06
2016-10-14T10:44:14.177Z,945.04
2016-10-14T10:45:14.197Z,945
2016-10-14T10:46:14.227Z,945
2016-10-14T10:47:14.240Z,944.99
2016-10-14T10:48:14.264Z,945.05
2016-10-14T10:49:14.286Z,944.95
2016-10-14T10:50:14.306Z,944.98
2016-10-14T10:51:14.328Z,944.96
2016-10-14T10:52:14.350Z,944.95
2016-10-14T10:53:14.372Z,944.98
2016-10-14T10:54:14.393Z,945
2016-10-14T10:55:14.420Z,945.04
2016-10-14T10:56:14.435Z,945.01
2016-10-14T10:57:14.458Z,944.95
2016-10-14T10:58:14.488Z,944.88
2016-10-14T10:59:14.502Z,944.87
2016-10-14T11:00:14.524Z,944.89
2016-10-14T11:01:14.545Z,944.94
2016-10-14T11:02:14.567Z,944.86
2016-10-14T11:03:14.595Z,944.89
2016-10-14T11:04:14.611Z,944.86
2016-10-14T11:05:14.633Z,944.83
2016-10-14T11:06:14.663Z,944.8
2016-10-14T11:07:14.675Z,944.74
2016-10-14T11:08:14.707Z,944.75
2016-10-14T11:09:14.721Z,944.78
2016-10-14T11:10:14.751Z,944.76
2016-10-14T11:11:14.763Z,944.81
2016-10-14T11:12:14.795Z,944.71
2016-10-14T11:13:14.806Z,944.75
2016-10-14T11:14:14.829Z,944.73
2016-10-14T11:15:14.849Z,944.7
2016-10-14T11:16:14.873Z,944.68
2016-10-14T11:17:14.893Z,944.61
2016-10-14T11:18:14.919Z,944.63
2016-10-14T11:19:14.938Z,944.63
2016-10-14T11:20:14.959Z,944.58
2016-10-14T11:21:14.981Z,944.6
2016-10-14T11:22:15.011Z,944.55
2016-10-14T11:23:15.025Z,944.56
2016-10-14T11:24:15.048Z,944.59
2016-10-14T11:25:15.068Z,944.5
2016-10-14T11:26:15.099Z,944.46
2016-10-14T11:27:15.114Z,944.38
2016-10-14T11:28:15.135Z,944.45
2016-10-14T11:29:15.157Z,944.42
2016-10-14T11:30:15.178Z,944.38
2016-10-14T11:31:15.199Z,944.38
2016-10-14T11:32:15.223Z,944.42
2016-10-14T11:33:15.243Z,944.47
2016-10-14T11:34:15.265Z,944.48
2016-10-14T11:35:15.287Z,944.51
2016-10-14T11:36:15.308Z,944.59
2016-10-14T11:37:15.329Z,944.58
2016-10-14T11:38:15.353Z,944.52
2016-10-14T11:39:15.374Z,944.51
2016-10-14T11:40:15.396Z,944.54
2016-10-14T11:41:15.420Z,944.53
2016-10-14T11:42:15.445Z,944.53
2016-10-14T11:43:15.463Z,944.45
2016-10-14T11:44:15.491Z,944.46
2016-10-14T11:45:15.506Z,944.55
2016-10-14T11:46:15.529Z,944.64
2016-10-14T11:47:15.549Z,944.67
2016-10-14T11:48:15.573Z,944.69
2016-10-14T11:49:15.594Z,944.69
2016-10-14T11:50:15.623Z,944.72
2016-10-14T11:51:15.637Z,944.69
2016-10-14T11:52:15.667Z,944.72
2016-10-14T11:53:15.681Z,944.7
2016-10-14T11:54:15.704Z,944.72
2016-10-14T11:55:15.726Z,944.67
2016-10-14T11:56:15.748Z,944.71
2016-10-14T11:57:15.786Z,944.76
2016-10-14T11:58:15.790Z,944.77
2016-10-14T11:59:15.813Z,944.73
2016-10-14T12:00:15.836Z,944.71
2016-10-14T12:01:15.858Z,944.62
2016-10-14T12:02:15.895Z,944.63
2016-10-14T12:03:15.902Z,944.58
2016-10-14T12:04:15.932Z,944.61
2016-10-14T12:05:15.948Z,944.56
2016-10-14T12:06:15.969Z,944.56
2016-10-14T12:07:15.991Z,944.47
2016-10-14T12:08:16.012Z,944.46
2016-10-14T12:09:16.034Z,944.52
2016-10-14T12:10:16.057Z,944.5
2016-10-14T12:11:16.079Z,944.51
2016-10-14T12:12:16.101Z,944.51
2016-10-14T12:13:16.124Z,944.49
2016-10-14T12:14:16.145Z,944.49
2016-10-14T12:15:16.168Z,944.45
2016-10-14T12:16:16.198Z,944.42
2016-10-14T12:17:16.212Z,944.35
2016-10-14T12:18:16.236Z,944.36
2016-10-14T12:19:16.259Z,944.36
2016-10-14T12:20:16.284Z,944.31
2016-10-14T12:21:16.303Z,944.27
2016-10-14T12:22:16.335Z,944.25
2016-10-14T12:23:16.347Z,944.3
2016-10-14T12:24:16.369Z,944.34
2016-10-14T12:25:16.391Z,944.38
2016-10-14T12:26:16.413Z,944.38
2016-10-14T12:27:16.437Z,944.39
2016-10-14T12:28:16.459Z,944.4
2016-10-14T12:29:16.503Z,944.35
2016-10-14T12:30:16.555Z,944.43
2016-10-14T12:31:16.527Z,944.43
2016-10-14T12:32:16.548Z,944.41